createdAt,value
2022-07-25T03:59:10.066Z,42
2022-07-25T04:02:46.492Z,75
2022-07-25T04:13:11.367Z,75
2022-07-25T04:24:34.698Z,74
2022-07-25T04:27:11.359Z,73
2022-07-25T04:29:39.123Z,73
2022-07-25T04:31:17.759Z,73
2022-07-25T04:37:44.594Z,71
2022-07-25T04:38:55.626Z,71
2022-07-25T04:40:11.958Z,71
2022-07-25T04:46:44.555Z,70
2022-07-25T04:51:33.299Z,70
2022-07-25T04:53:25.043Z,70
2022-07-25T04:54:55.003Z,70
2022-07-25T04:56:59.723Z,69
2022-07-25T05:00:56.028Z,68
2022-07-25T05:02:02.222Z,67
2022-07-25T05:04:32.188Z,67
2022-07-25T05:07:51.851Z,66
2022-07-25T05:09:25.767Z,66
2022-07-25T05:14:26.946Z,66
2022-07-25T05:18:11.726Z,66
2022-07-25T05:28:21.451Z,64
2022-07-25T05:31:09.462Z,64
2022-07-25T05:33:22.291Z,64
2022-07-25T05:35:03.238Z,64
2022-07-25T05:36:48.639Z,64
2022-07-25T05:41:21.372Z,64
2022-07-25T05:52:09.642Z,62
2022-07-25T06:07:49.945Z,59
2022-07-25T06:09:34.998Z,59
2022-07-25T06:13:55.462Z,57
2022-07-25T06:15:40.274Z,57
2022-07-25T06:56:56.501Z,49
2022-07-25T09:04:14.018Z,34
2022-07-25T09:09:26.470Z,34
2022-07-25T09:10:50.888Z,34
2022-07-25T09:12:26.018Z,34
2022-07-25T09:18:33.969Z,34
2022-07-25T11:13:13.605Z,30
2022-07-25T11:22:37.525Z,27
2022-07-25T11:56:32.371Z,28
2022-07-25T12:17:50.069Z,27
2022-07-25T12:21:33.329Z,27
2022-07-25T12:24:59.237Z,27
2022-07-25T12:26:42.652Z,28
2022-07-25T12:28:30.825Z,28
2022-07-25T12:35:39.199Z,28
2022-07-25T12:38:21.705Z,27
2022-07-25T12:42:21.657Z,26
2022-07-25T12:44:03.104Z,27
2022-07-25T12:45:44.920Z,27
2022-07-25T12:47:40.288Z,27
2022-07-25T13:07:03.295Z,27
2022-07-25T13:08:39.358Z,28
2022-07-25T13:13:58.676Z,28
2022-07-25T13:20:27.238Z,28
2022-07-25T13:22:36.804Z,27
2022-07-25T13:28:43.985Z,27
2022-07-25T13:30:24.218Z,26
2022-07-25T13:31:29.328Z,27
2022-07-25T13:32:34.377Z,27
2022-07-25T13:33:39.422Z,27
2022-07-25T13:34:44.203Z,27
2022-07-25T13:35:49.225Z,28
2022-07-25T13:36:53.856Z,29
2022-07-25T13:37:59.744Z,28
2022-07-25T13:39:05.227Z,28
2022-07-25T13:40:09.253Z,28
2022-07-25T13:41:13.713Z,28
2022-07-25T13:42:19.044Z,28
2022-07-25T13:44:27.936Z,28
2022-07-25T13:45:33.025Z,28
2022-07-25T13:46:39.169Z,28
2022-07-25T13:47:43.896Z,28
2022-07-25T13:48:48.884Z,28
2022-07-25T13:49:53.913Z,28
2022-07-25T13:50:59.080Z,27
2022-07-25T13:52:07.700Z,27
2022-07-25T13:53:16.568Z,27
2022-07-25T13:54:21.227Z,28
2022-07-25T13:55:26.074Z,28
2022-07-25T13:56:33.554Z,27
2022-07-25T13:57:38.534Z,27
2022-07-25T13:58:48.771Z,28
2022-07-25T13:59:53.324Z,28
2022-07-25T14:00:57.843Z,28
2022-07-25T14:02:04.663Z,29
2022-07-25T14:03:09.721Z,29
2022-07-25T14:04:15.045Z,29
2022-07-25T14:05:19.807Z,28
2022-07-25T14:06:24.908Z,27
2022-07-25T14:07:29.571Z,27
2022-07-25T14:08:37.382Z,27
2022-07-25T14:09:46.997Z,27
2022-07-25T14:10:52.122Z,27
2022-07-25T14:11:57.261Z,27
2022-07-25T14:13:02.108Z,27
2022-07-25T14:14:08.012Z,27
2022-07-25T14:15:13.279Z,28
2022-07-25T14:16:18.418Z,27
2022-07-25T14:17:24.698Z,27
2022-07-25T14:18:28.172Z,28
2022-07-25T14:19:32.527Z,28
2022-07-25T14:20:36.956Z,28
2022-07-25T14:21:43.349Z,28
2022-07-25T14:22:50.700Z,28
2022-07-25T14:23:59.648Z,28
2022-07-25T14:25:04.929Z,27
2022-07-25T14:26:09.679Z,28
2022-07-25T14:27:14.425Z,29
2022-07-25T14:28:25.464Z,29
2022-07-25T14:29:33.480Z,28
2022-07-25T14:30:38.597Z,29
2022-07-25T14:31:43.374Z,29
2022-07-25T14:32:51.930Z,29
2022-07-25T14:33:56.561Z,29
2022-07-25T14:35:00.862Z,29
2022-07-25T14:36:05.976Z,28
2022-07-25T14:37:10.443Z,29
2022-07-25T14:38:28.872Z,28
2022-07-25T14:39:33.951Z,28
2022-07-25T14:43:08.009Z,29
2022-07-25T14:44:19.020Z,29
2022-07-25T14:45:36.505Z,30
2022-07-25T14:47:39.761Z,29
2022-07-25T14:53:27.600Z,29
2022-07-25T14:54:32.326Z,29
2022-07-25T14:55:42.313Z,29
2022-07-25T14:57:10.485Z,29
2022-07-25T14:58:14.841Z,28
2022-07-25T15:00:52.100Z,28
2022-07-25T15:01:57.528Z,28
2022-07-25T15:03:02.376Z,28
2022-07-25T15:04:25.567Z,28
2022-07-25T15:05:30.764Z,28
2022-07-25T15:06:35.273Z,29
2022-07-25T15:07:39.994Z,29
2022-07-25T15:09:07.575Z,29
2022-07-25T15:10:22.856Z,29
2022-07-25T15:11:28.546Z,29
2022-07-25T15:12:38.792Z,28
2022-07-25T15:13:44.945Z,29
2022-07-25T15:14:51.250Z,30
2022-07-25T15:15:57.309Z,30
2022-07-25T15:17:07.556Z,29
2022-07-25T15:18:52.497Z,30
2022-07-25T15:19:50.521Z,30
2022-07-25T15:21:36.444Z,30
2022-07-25T15:23:01.180Z,30
2022-07-25T15:24:24.590Z,30
2022-07-25T15:26:10.669Z,30
2022-07-25T15:28:50.120Z,30
2022-07-25T15:29:56.065Z,28
2022-07-25T15:31:10.041Z,29
2022-07-25T15:32:56.873Z,28
2022-07-25T15:34:04.195Z,29
2022-07-25T15:35:27.168Z,29
2022-07-25T15:36:35.176Z,30
2022-07-25T15:37:40.385Z,31
2022-07-25T15:38:53.970Z,30
2022-07-25T15:39:58.965Z,31
2022-07-25T15:43:37.252Z,30
2022-07-25T15:44:59.660Z,30
2022-07-25T15:46:43.280Z,31
2022-07-25T15:47:53.864Z,30
2022-07-25T15:48:59.781Z,30
2022-07-25T15:50:21.456Z,31
2022-07-25T15:51:37.420Z,30
2022-07-25T15:54:19.564Z,30
2022-07-25T15:55:34.723Z,31
2022-07-25T15:56:41.149Z,31
2022-07-25T16:00:34.211Z,29
2022-07-25T16:02:37.689Z,30
2022-07-25T16:04:54.296Z,31
2022-07-25T16:06:42.544Z,31
2022-07-25T16:11:20.416Z,30
2022-07-25T16:12:28.534Z,30
2022-07-25T16:14:11.146Z,30
2022-07-25T16:15:19.592Z,31
2022-07-25T16:16:24.274Z,32
2022-07-25T16:17:29.876Z,32
2022-07-25T16:19:29.822Z,31
2022-07-25T16:20:34.172Z,31
2022-07-25T16:22:45.899Z,31
2022-07-25T16:23:50.856Z,31
2022-07-25T16:25:09.016Z,31
2022-07-25T16:26:33.120Z,31
2022-07-25T16:28:18.547Z,31
2022-07-25T16:31:01.939Z,31
2022-07-25T16:32:09.735Z,31
2022-07-25T16:33:18.752Z,31
2022-07-25T16:34:28.740Z,32
2022-07-25T16:35:31.196Z,32
2022-07-25T16:36:36.328Z,32
2022-07-25T16:37:41.502Z,32
2022-07-25T16:39:17.236Z,32
2022-07-25T16:40:25.979Z,32
2022-07-25T16:41:27.233Z,32
2022-07-25T16:42:36.284Z,32
2022-07-25T16:43:51.276Z,33
2022-07-25T16:56:29.341Z,33
2022-07-25T16:58:50.325Z,32
2022-07-25T17:07:45.585Z,34
2022-07-25T17:12:19.213Z,34
2022-07-25T17:13:24.764Z,34
2022-07-25T17:14:30.470Z,33
2022-07-25T17:15:35.334Z,34
2022-07-25T17:16:40.228Z,34
2022-07-25T17:17:44.912Z,34
2022-07-25T17:18:50.604Z,34
2022-07-25T17:19:59.830Z,34
2022-07-25T17:20:59.928Z,34
2022-07-25T17:22:04.620Z,34
2022-07-25T17:23:42.438Z,35
2022-07-25T17:24:48.598Z,35
2022-07-25T17:25:53.568Z,35
2022-07-25T17:27:03.556Z,35
2022-07-25T17:28:08.563Z,35
2022-07-25T17:29:16.169Z,35
2022-07-25T17:31:28.261Z,35
2022-07-25T17:32:42.148Z,35
2022-07-25T17:33:46.832Z,35
2022-07-25T17:34:52.427Z,35
2022-07-25T17:35:57.123Z,35
2022-07-25T17:37:02.175Z,36
2022-07-25T17:38:06.747Z,36
2022-07-25T17:39:28.903Z,36
2022-07-25T17:40:33.739Z,36
2022-07-25T17:41:39.926Z,36
2022-07-25T17:42:45.648Z,36
2022-07-25T17:43:49.900Z,36
2022-07-25T17:44:58.813Z,37
2022-07-25T17:46:18.733Z,37
2022-07-25T17:47:23.281Z,37
2022-07-25T17:48:29.428Z,37
2022-07-25T17:49:36.064Z,37
2022-07-25T17:51:05.587Z,37
2022-07-25T17:52:10.467Z,38
2022-07-25T17:53:14.872Z,38
2022-07-25T17:55:26.384Z,38
2022-07-25T17:56:36.455Z,38
2022-07-25T18:02:14.094Z,38
2022-07-25T18:13:22.244Z,39
2022-07-25T18:34:59.952Z,40
2022-07-25T18:37:20.795Z,41
2022-07-25T18:38:25.695Z,42
2022-07-25T18:39:30.880Z,42
2022-07-25T18:40:38.379Z,42
2022-07-25T18:41:48.938Z,42
2022-07-25T18:42:58.247Z,42
2022-07-25T18:44:15.196Z,42
2022-07-25T18:45:20.899Z,42
2022-07-25T18:46:31.048Z,43
2022-07-25T18:47:42.931Z,42
2022-07-25T18:48:49.161Z,42
2022-07-25T18:49:59.516Z,43
2022-07-25T18:51:09.030Z,43
2022-07-25T18:52:14.212Z,43
2022-07-25T18:53:19.632Z,43
2022-07-25T18:54:24.778Z,43
2022-07-25T18:56:52.579Z,43
2022-07-25T18:57:57.492Z,43
2022-07-25T18:59:02.708Z,43
2022-07-25T19:00:08.554Z,43
2022-07-25T19:01:15.254Z,43
2022-07-25T19:02:24.192Z,43
2022-07-25T19:03:29.192Z,43
2022-07-25T19:04:57.783Z,43
2022-07-25T19:06:08.789Z,43
2022-07-25T19:07:15.043Z,43
2022-07-25T19:08:32.259Z,44
2022-07-25T19:09:38.720Z,44
2022-07-25T19:10:44.727Z,44
2022-07-25T19:11:56.298Z,44
2022-07-25T19:13:01.079Z,44
2022-07-25T19:14:13.948Z,44
2022-07-25T19:15:47.871Z,44
2022-07-25T19:17:07.516Z,44
2022-07-25T19:18:13.115Z,45
2022-07-25T19:19:25.783Z,44
2022-07-25T19:20:49.892Z,45
2022-07-25T19:22:14.410Z,45
2022-07-25T19:23:27.983Z,45
2022-07-25T19:24:38.548Z,45
2022-07-25T19:36:03.702Z,45
2022-07-25T19:37:54.774Z,45
2022-07-25T19:39:10.937Z,45
2022-07-25T19:40:28.279Z,45
2022-07-25T19:41:33.168Z,45
2022-07-25T19:42:38.095Z,45
2022-07-25T19:43:44.079Z,45
2022-07-25T19:44:48.758Z,45
2022-07-25T19:45:53.821Z,45
2022-07-25T19:46:58.199Z,45
2022-07-25T19:48:03.206Z,45
2022-07-25T19:49:23.084Z,45
2022-07-25T19:50:28.540Z,45
2022-07-25T19:51:42.715Z,45
2022-07-25T19:53:07.212Z,45
2022-07-25T19:54:15.451Z,45
2022-07-25T19:55:20.516Z,45
2022-07-25T19:56:25.184Z,46
2022-07-25T19:57:33.742Z,45
2022-07-25T19:58:40.384Z,46
2022-07-25T19:59:44.971Z,46
2022-07-25T20:00:49.898Z,46
2022-07-25T20:02:01.306Z,46
2022-07-25T20:03:06.383Z,46
2022-07-25T20:04:11.103Z,46
2022-07-25T20:05:14.884Z,46
2022-07-25T20:06:25.189Z,46
2022-07-25T20:07:33.928Z,46
2022-07-25T20:08:39.940Z,46
2022-07-25T20:09:50.497Z,46
2022-07-25T20:11:04.523Z,46
2022-07-25T20:12:15.795Z,46
2022-07-25T20:13:20.175Z,46
2022-07-25T20:14:24.525Z,46
2022-07-25T20:15:29.208Z,46
2022-07-25T20:16:34.229Z,47
2022-07-25T20:17:38.654Z,46
2022-07-25T20:18:43.800Z,47
2022-07-25T20:19:48.771Z,47
2022-07-25T20:20:53.936Z,47
2022-07-25T20:22:00.874Z,47
2022-07-25T20:23:08.280Z,47
2022-07-25T20:24:16.885Z,47
2022-07-25T20:25:18.476Z,47
2022-07-25T20:26:26.983Z,47
2022-07-25T20:28:03.755Z,47
2022-07-25T20:29:09.447Z,47
2022-07-25T20:30:14.046Z,47
2022-07-25T20:31:20.378Z,47
2022-07-25T20:32:24.811Z,47
2022-07-25T20:33:30.659Z,47
2022-07-25T20:34:35.679Z,47
2022-07-25T20:35:40.139Z,47
2022-07-25T20:36:45.159Z,48
2022-07-25T20:37:50.855Z,48
2022-07-25T20:38:55.371Z,48
2022-07-25T20:39:59.896Z,48
2022-07-25T20:41:04.807Z,48
2022-07-25T20:42:13.411Z,48
2022-07-25T20:43:23.434Z,48
2022-07-25T20:44:28.675Z,48
2022-07-25T20:45:33.063Z,48
2022-07-25T20:46:37.832Z,48
2022-07-25T20:47:42.953Z,48
2022-07-25T20:48:49.313Z,48
2022-07-25T20:49:55.864Z,48
2022-07-25T20:51:00.043Z,48
2022-07-25T20:52:05.188Z,48
2022-07-25T20:53:10.219Z,48
2022-07-25T20:54:16.819Z,48
2022-07-25T20:55:21.083Z,48
2022-07-25T20:56:26.476Z,48
2022-07-25T20:57:35.758Z,48
2022-07-25T20:58:41.052Z,48
2022-07-25T20:59:46.176Z,48
2022-07-25T21:00:51.208Z,48
2022-07-25T21:01:56.060Z,48
2022-07-25T21:03:00.997Z,49
2022-07-25T21:04:07.547Z,48
2022-07-25T21:05:10.372Z,48
2022-07-25T21:06:15.119Z,48
2022-07-25T21:07:20.046Z,48
2022-07-25T21:08:24.491Z,48
2022-07-25T21:09:32.574Z,49
2022-07-25T21:10:34.251Z,49
2022-07-25T21:11:39.762Z,49
2022-07-25T21:12:44.639Z,49
2022-07-25T21:13:49.482Z,49
2022-07-25T21:14:54.155Z,49
2022-07-25T21:16:01.275Z,49
2022-07-25T21:17:06.886Z,49
2022-07-25T21:18:11.789Z,49
2022-07-25T21:19:17.317Z,49
2022-07-25T21:20:21.828Z,49
2022-07-25T21:21:26.931Z,49
2022-07-25T21:22:31.549Z,50
2022-07-25T21:23:39.595Z,49
2022-07-25T21:24:48.737Z,49
2022-07-25T21:25:57.945Z,50
2022-07-25T21:27:07.283Z,50
2022-07-25T21:28:12.134Z,50
2022-07-25T21:29:16.927Z,50
2022-07-25T21:30:22.018Z,50
2022-07-25T21:31:26.799Z,50
2022-07-25T21:32:44.714Z,50
2022-07-25T21:33:49.576Z,50
2022-07-25T21:34:54.342Z,50
2022-07-25T21:35:59.067Z,50
2022-07-25T21:37:03.571Z,50
2022-07-25T21:38:13.672Z,50
2022-07-25T21:39:19.368Z,50
2022-07-25T21:40:24.143Z,50
2022-07-25T21:41:28.558Z,51
2022-07-25T21:42:33.651Z,51
2022-07-25T21:43:39.547Z,51
2022-07-25T21:44:44.347Z,51
2022-07-25T21:45:49.247Z,51
2022-07-25T21:46:54.146Z,51
2022-07-25T21:47:59.114Z,51
2022-07-25T21:49:03.968Z,51
2022-07-25T21:50:17.598Z,51
2022-07-25T21:51:24.693Z,51
2022-07-25T21:52:30.006Z,51
2022-07-25T21:53:33.187Z,51
2022-07-25T21:54:51.099Z,52
2022-07-25T21:55:55.870Z,52
2022-07-25T21:57:00.563Z,51
2022-07-25T21:58:05.703Z,51
2022-07-25T21:59:10.545Z,52
2022-07-25T22:00:14.714Z,52
2022-07-25T22:01:19.735Z,52
2022-07-25T22:03:49.116Z,52
2022-07-25T22:04:53.928Z,52
2022-07-25T22:05:59.305Z,52
2022-07-25T22:07:03.966Z,52
2022-07-25T22:08:10.317Z,52
2022-07-25T22:09:15.455Z,52
2022-07-25T22:10:21.309Z,52
2022-07-25T22:11:38.804Z,52
2022-07-25T22:12:32.718Z,52
2022-07-25T22:13:41.433Z,52
2022-07-25T22:14:42.533Z,52
2022-07-25T22:15:47.490Z,52
2022-07-25T22:16:53.170Z,52
2022-07-25T22:18:02.144Z,52
2022-07-25T22:19:07.403Z,52
2022-07-25T22:20:12.187Z,53
2022-07-25T22:21:18.382Z,52
2022-07-25T22:22:25.986Z,52
2022-07-25T22:23:31.402Z,53
2022-07-25T22:24:41.902Z,53
2022-07-25T22:25:44.402Z,53
2022-07-25T22:26:48.881Z,53
2022-07-25T22:27:54.025Z,53
2022-07-25T22:28:59.610Z,53
2022-07-25T22:30:08.525Z,53
2022-07-25T22:33:17.709Z,53
2022-07-25T22:34:37.410Z,53
2022-07-25T22:35:42.398Z,53
2022-07-25T22:36:47.449Z,53
2022-07-25T22:37:52.450Z,53
2022-07-25T22:38:57.770Z,53
2022-07-25T22:40:02.701Z,53
2022-07-25T22:41:08.004Z,54
2022-07-25T22:42:12.873Z,54
2022-07-25T22:43:18.203Z,54
2022-07-25T22:44:23.498Z,55
2022-07-25T22:45:28.391Z,55
2022-07-25T22:46:38.343Z,54
2022-07-25T22:47:47.542Z,55
2022-07-25T22:48:52.139Z,55
2022-07-25T22:49:56.782Z,55
2022-07-25T22:51:06.231Z,55
2022-07-25T22:52:11.095Z,55
2022-07-25T22:53:17.030Z,55
2022-07-25T22:54:21.644Z,55
2022-07-25T22:55:26.265Z,55
2022-07-25T22:56:31.337Z,55
2022-07-25T22:57:36.932Z,55
2022-07-25T22:58:41.125Z,55
2022-07-25T22:59:45.781Z,55
2022-07-25T23:00:54.826Z,55
2022-07-25T23:02:03.802Z,56
2022-07-25T23:03:08.506Z,55
2022-07-25T23:04:13.354Z,55
2022-07-25T23:05:18.421Z,55
2022-07-25T23:06:23.198Z,55
2022-07-25T23:07:31.458Z,56
2022-07-25T23:08:36.392Z,56
2022-07-25T23:09:40.878Z,56
2022-07-25T23:10:46.450Z,56
2022-07-25T23:11:52.542Z,56
2022-07-25T23:12:57.085Z,56
2022-07-25T23:14:01.644Z,56
2022-07-25T23:15:06.897Z,56
2022-07-25T23:16:11.786Z,56
2022-07-25T23:17:16.872Z,56
2022-07-25T23:18:21.780Z,56
2022-07-25T23:19:27.084Z,56
2022-07-25T23:20:32.105Z,56
2022-07-25T23:21:36.721Z,57
2022-07-25T23:22:42.743Z,57
2022-07-25T23:23:47.221Z,57
2022-07-25T23:24:52.027Z,57
2022-07-25T23:26:01.701Z,57
2022-07-25T23:27:06.422Z,57
2022-07-25T23:28:11.509Z,57
2022-07-25T23:29:16.245Z,57
2022-07-25T23:30:22.461Z,57
2022-07-25T23:31:28.444Z,57
2022-07-25T23:32:33.044Z,57
2022-07-25T23:33:38.002Z,57
2022-07-25T23:34:43.106Z,57
2022-07-25T23:35:48.073Z,57
2022-07-25T23:36:52.953Z,57
2022-07-25T23:37:58.482Z,57
2022-07-25T23:39:04.639Z,57
2022-07-25T23:40:09.146Z,57
2022-07-25T23:41:13.538Z,58
2022-07-25T23:42:18.519Z,58
2022-07-25T23:43:34.832Z,58
2022-07-25T23:46:07.686Z,58
2022-07-25T23:47:12.668Z,58
2022-07-25T23:48:17.456Z,58
2022-07-25T23:49:22.415Z,58
2022-07-25T23:50:27.670Z,58
2022-07-25T23:51:32.588Z,58
2022-07-25T23:52:39.112Z,58
2022-07-25T23:53:45.494Z,59
2022-07-25T23:54:50.349Z,59
2022-07-25T23:55:55.317Z,59
2022-07-25T23:57:00.103Z,59
2022-07-25T23:58:05.309Z,59
2022-07-25T23:59:10.703Z,59
